Time;durP1;ratioP1;P1;durP2;ratioP2;P2;SDS_P1;SDS_P2;PMS_P1;PMS_P2;Temp;Humidity;BMP_temperature;BMP_pressure;BME280_temperature;BME280_humidity;BME280_pressure;Samples;Min_cycle;Max_cycle;Signal;HPM_P1;HPM_P2
2023/04/28 00:00:07;;;;;;;55.83;33.15;;;6.80;99.90;;;;;;4896315;29;20112;-71
2023/04/28 00:02:33;;;;;;;55.95;34.10;;;6.70;99.90;;;;;;4896300;29;20516;-75
2023/04/28 00:04:59;;;;;;;50.60;32.53;;;6.70;99.90;;;;;;4896397;29;20477;-74
2023/04/28 00:07:25;;;;;;;54.28;31.80;;;6.70;99.90;;;;;;4884003;29;20162;-77
2023/04/28 00:09:51;;;;;;;58.05;31.55;;;6.70;99.90;;;;;;4896210;29;20040;-78
2023/04/28 00:12:17;;;;;;;47.25;28.23;;;6.80;99.90;;;;;;4897904;29;20072;-77
2023/04/28 00:14:43;;;;;;;51.55;32.40;;;6.70;99.90;;;;;;4899661;29;20691;-78
2023/04/28 00:17:09;;;;;;;51.38;32.90;;;6.70;99.90;;;;;;4911770;29;20075;-77
2023/04/28 00:19:35;;;;;;;53.25;32.92;;;6.60;99.90;;;;;;4899173;29;20496;-77
2023/04/28 00:22:01;;;;;;;45.70;30.02;;;6.30;99.90;;;;;;4882500;29;20237;-76
2023/04/28 00:24:27;;;;;;;48.38;32.38;;;6.30;99.90;;;;;;4897938;29;20051;-75
2023/04/28 00:26:52;;;;;;;53.90;31.75;;;6.20;99.90;;;;;;4882537;29;20088;-77
2023/04/28 00:29:19;;;;;;;47.00;31.48;;;6.30;99.90;;;;;;4882034;29;20076;-77
2023/04/28 00:31:45;;;;;;;51.42;31.58;;;6.30;99.90;;;;;;4882185;29;20103;-77
2023/04/28 00:34:13;;;;;;;46.58;30.55;;;6.30;99.90;;;;;;4897378;29;20040;-78
2023/04/28 00:36:39;;;;;;;48.13;31.67;;;6.20;99.90;;;;;;4898023;29;20021;-77
2023/04/28 00:39:05;;;;;;;46.15;30.98;;;6.30;99.90;;;;;;4897688;29;20052;-78
2023/04/28 00:41:33;;;;;;;47.53;29.02;;;6.30;99.90;;;;;;4898915;29;20099;-76
2023/04/28 00:43:59;;;;;;;46.20;30.48;;;6.30;99.90;;;;;;4896559;29;20044;-76
2023/04/28 00:46:28;;;;;;;49.72;30.10;;;6.40;99.90;;;;;;4882821;29;20041;-77
2023/04/28 00:48:55;;;;;;;63.00;31.00;;;6.40;99.90;;;;;;4894675;29;20028;-73
2023/04/28 00:51:21;;;;;;;49.55;30.67;;;6.30;99.90;;;;;;4899119;29;20036;-76
2023/04/28 00:53:47;;;;;;;47.92;29.10;;;6.30;99.90;;;;;;4881728;29;20037;-77
2023/04/28 00:56:13;;;;;;;44.35;29.27;;;6.30;99.90;;;;;;4897676;29;20441;-77
2023/04/28 00:58:40;;;;;;;43.90;31.27;;;6.20;99.90;;;;;;4881594;29;20131;-78
2023/04/28 01:01:07;;;;;;;51.20;30.63;;;6.10;99.90;;;;;;4898866;29;20043;-78
2023/04/28 01:03:36;;;;;;;54.42;32.35;;;6.10;99.90;;;;;;4896542;29;20063;-77
2023/04/28 01:06:05;;;;;;;54.80;36.28;;;6.10;99.90;;;;;;4897469;29;20028;-77
2023/04/28 01:08:33;;;;;;;58.15;31.65;;;6.10;99.90;;;;;;4881747;29;20044;-81
2023/04/28 01:11:01;;;;;;;58.90;31.85;;;6.10;99.90;;;;;;4866485;29;20043;-78
2023/04/28 01:13:45;;;;;;;44.13;28.40;;;6.20;99.90;;;;;;4898837;29;20508;-77
2023/04/28 01:16:11;;;;;;;41.58;23.52;;;6.30;99.90;;;;;;4898556;29;20040;-78
2023/04/28 01:18:39;;;;;;;30.75;18.73;;;6.30;99.90;;;;;;4896772;29;20492;-78
2023/04/28 01:21:05;;;;;;;35.78;23.45;;;6.40;99.90;;;;;;4881822;29;20452;-76
2023/04/28 01:23:32;;;;;;;35.75;21.33;;;6.40;99.90;;;;;;4895906;29;20036;-77
2023/04/28 01:25:58;;;;;;;46.90;28.25;;;6.40;99.90;;;;;;4881747;29;20089;-75
2023/04/28 01:28:24;;;;;;;52.33;27.83;;;6.40;99.90;;;;;;4896495;29;20119;-78
2023/04/28 01:30:50;;;;;;;42.22;23.65;;;6.40;99.90;;;;;;4881327;29;20056;-78
2023/04/28 01:33:15;;;;;;;29.67;14.05;;;6.30;99.90;;;;;;4896660;29;20461;-78
2023/04/28 01:35:41;;;;;;;36.25;21.13;;;6.30;99.90;;;;;;4898418;29;20033;-78
2023/04/28 01:38:07;;;;;;;22.83;14.95;;;6.30;99.90;;;;;;4881198;29;20103;-77
2023/04/28 01:40:33;;;;;;;23.25;15.00;;;6.30;99.90;;;;;;4896829;29;20029;-73
2023/04/28 01:42:59;;;;;;;23.00;15.07;;;6.30;99.90;;;;;;4896523;29;20043;-77
2023/04/28 01:45:25;;;;;;;25.50;16.02;;;6.40;99.90;;;;;;4897975;29;20032;-78
2023/04/28 01:47:52;;;;;;;30.40;20.75;;;6.40;99.90;;;;;;4896338;29;20046;-79
2023/04/28 01:50:18;;;;;;;38.70;18.27;;;6.30;99.90;;;;;;4880723;29;20049;-78
2023/04/28 01:52:44;;;;;;;24.85;15.98;;;6.30;99.90;;;;;;4880962;29;20171;-78
2023/04/28 01:55:10;;;;;;;26.25;15.18;;;6.20;99.90;;;;;;4896305;29;20028;-77
2023/04/28 01:57:36;;;;;;;23.15;14.52;;;6.10;99.90;;;;;;4880954;29;20036;-78
2023/04/28 02:00:03;;;;;;;27.00;15.70;;;6.10;99.90;;;;;;4880963;29;20034;-76
2023/04/28 02:02:30;;;;;;;24.33;14.75;;;6.10;99.90;;;;;;4893193;29;20405;-79
2023/04/28 02:04:57;;;;;;;25.40;13.73;;;6.10;99.90;;;;;;4896045;29;20040;-78
2023/04/28 02:07:23;;;;;;;25.85;14.50;;;6.10;99.90;;;;;;4897709;29;20032;-78
2023/04/28 02:09:49;;;;;;;27.73;15.45;;;6.10;99.90;;;;;;4895879;29;20029;-78
2023/04/28 02:12:16;;;;;;;27.85;16.58;;;6.00;99.90;;;;;;4897294;29;20385;-76
2023/04/28 02:14:42;;;;;;;24.83;15.27;;;6.00;99.90;;;;;;4896467;29;20064;-73
2023/04/28 02:17:07;;;;;;;33.67;21.42;;;6.00;99.90;;;;;;4896155;29;20029;-73
2023/04/28 02:19:33;;;;;;;34.38;20.25;;;6.00;99.90;;;;;;4880465;29;20401;-75
2023/04/28 02:21:59;;;;;;;29.27;20.23;;;5.80;99.90;;;;;;4880539;29;20049;-78
2023/04/28 02:24:25;;;;;;;40.15;23.25;;;5.80;99.90;;;;;;4880832;29;20505;-78
2023/04/28 02:26:52;;;;;;;38.20;23.25;;;5.70;99.90;;;;;;4897529;29;20416;-78
2023/04/28 02:29:18;;;;;;;38.10;23.55;;;5.60;99.90;;;;;;4896171;29;20028;-77
2023/04/28 02:31:45;;;;;;;39.53;26.20;;;5.70;99.90;;;;;;4880141;29;20440;-78
2023/04/28 02:34:10;;;;;;;40.40;25.23;;;5.60;99.90;;;;;;4879781;29;20040;-77
2023/04/28 02:36:37;;;;;;;44.50;28.60;;;5.50;99.90;;;;;;4895620;29;20040;-73
2023/04/28 02:39:03;;;;;;;42.85;24.65;;;5.50;99.90;;;;;;4895436;29;20036;-78
2023/04/28 02:41:30;;;;;;;43.45;26.25;;;5.50;99.90;;;;;;4887912;29;20108;-72
2023/04/28 02:43:55;;;;;;;45.35;28.00;;;5.40;99.90;;;;;;4896923;29;20453;-72
2023/04/28 02:46:21;;;;;;;37.38;24.90;;;5.40;99.90;;;;;;4880545;29;20071;-71
2023/04/28 02:48:47;;;;;;;39.05;24.38;;;5.40;99.90;;;;;;4896311;29;20467;-79
2023/04/28 02:51:13;;;;;;;39.15;24.67;;;5.40;99.90;;;;;;4896875;29;20444;-75
2023/04/28 02:53:39;;;;;;;37.60;22.70;;;5.50;99.90;;;;;;4900883;29;20036;-76
2023/04/28 02:56:05;;;;;;;38.08;23.27;;;5.50;99.90;;;;;;4887195;29;20139;-73
2023/04/28 02:58:32;;;;;;;39.20;24.20;;;5.50;99.90;;;;;;4889575;29;20542;-76
2023/04/28 03:00:58;;;;;;;43.20;24.13;;;5.50;99.90;;;;;;4895591;29;20071;-72
2023/04/28 03:03:24;;;;;;;33.20;19.73;;;5.50;99.90;;;;;;4896786;29;20071;-77
2023/04/28 03:05:50;;;;;;;26.13;14.95;;;5.50;99.90;;;;;;4879899;29;20036;-77
2023/04/28 03:08:16;;;;;;;32.45;19.40;;;5.50;99.90;;;;;;4902385;29;20025;-75
2023/04/28 03:10:41;;;;;;;30.33;19.63;;;5.40;99.90;;;;;;4895246;29;20366;-78
2023/04/28 03:13:07;;;;;;;33.97;21.50;;;5.40;99.90;;;;;;4897196;29;20347;-78
2023/04/28 03:15:33;;;;;;;35.42;22.02;;;5.20;99.90;;;;;;4879749;29;20033;-73
2023/04/28 03:18:00;;;;;;;34.45;21.95;;;5.20;99.90;;;;;;4895574;29;20491;-76
2023/04/28 03:20:25;;;;;;;34.45;22.95;;;5.20;99.90;;;;;;4896300;29;20485;-78
2023/04/28 03:22:51;;;;;;;33.92;19.77;;;5.20;99.90;;;;;;4895487;29;20045;-75
2023/04/28 03:25:17;;;;;;;29.40;19.65;;;5.20;99.90;;;;;;4896426;29;20044;-75
2023/04/28 03:27:48;;;;;;;31.40;20.48;;;5.20;99.90;;;;;;4895415;29;20032;-78
2023/04/28 03:30:14;;;;;;;31.25;19.40;;;5.10;99.90;;;;;;4902847;29;20381;-77
2023/04/28 03:32:40;;;;;;;30.23;17.90;;;5.00;99.90;;;;;;4896444;29;20040;-75
2023/04/28 03:35:07;;;;;;;28.75;18.80;;;5.00;99.90;;;;;;4900909;29;20029;-78
2023/04/28 03:37:33;;;;;;;29.60;18.70;;;5.00;99.90;;;;;;4903552;29;20037;-79
2023/04/28 03:40:00;;;;;;;35.50;19.35;;;4.90;99.90;;;;;;4892377;29;20029;-78
2023/04/28 03:42:27;;;;;;;31.33;18.20;;;4.90;99.90;;;;;;4891692;29;20123;-76
2023/04/28 03:45:07;;;;;;;36.35;19.35;;;5.00;99.90;;;;;;4903943;29;20131;-76
2023/04/28 03:47:33;;;;;;;32.67;18.75;;;5.00;99.90;;;;;;4904929;29;20040;-77
2023/04/28 03:49:59;;;;;;;30.90;19.45;;;5.10;99.90;;;;;;4909591;29;20497;-73
2023/04/28 03:52:26;;;;;;;32.05;17.85;;;5.40;99.90;;;;;;4895808;29;20051;-79
2023/04/28 03:54:52;;;;;;;29.63;16.95;;;5.80;99.90;;;;;;4882642;29;20115;-78
2023/04/28 03:57:18;;;;;;;29.67;17.33;;;6.30;99.90;;;;;;4884045;29;20036;-75
2023/04/28 03:59:44;;;;;;;35.03;17.67;;;6.80;99.90;;;;;;4876249;29;20037;-74
2023/04/28 04:02:10;;;;;;;30.73;18.52;;;7.30;99.90;;;;;;4876276;29;20080;-75
2023/04/28 04:04:36;;;;;;;84.72;43.97;;;7.40;99.90;;;;;;4892417;29;20057;-76
2023/04/28 04:07:03;;;;;;;75.25;42.50;;;7.90;99.90;;;;;;4884278;29;20031;-76
2023/04/28 04:09:29;;;;;;;85.38;47.03;;;8.40;99.90;;;;;;4877874;29;20077;-73
2023/04/28 04:11:55;;;;;;;59.08;35.25;;;8.80;99.90;;;;;;4875285;29;20051;-76
2023/04/28 04:14:22;;;;;;;47.33;29.38;;;9.30;99.90;;;;;;4894199;29;20033;-77
2023/04/28 04:16:48;;;;;;;36.20;21.10;;;9.80;97.80;;;;;;4882938;29;20033;-79
2023/04/28 04:19:15;;;;;;;28.63;16.88;;;10.20;97.80;;;;;;4882903;29;20031;-79
2023/04/28 04:21:42;;;;;;;19.98;10.88;;;10.20;97.70;;;;;;4897870;29;20025;-78
2023/04/28 04:24:08;;;;;;;22.00;11.85;;;10.60;96.30;;;;;;4882389;29;20036;-74
2023/04/28 04:26:34;;;;;;;26.90;14.13;;;10.90;96.30;;;;;;4898208;29;20484;-79
2023/04/28 04:29:01;;;;;;;31.65;16.48;;;11.30;95.90;;;;;;4909211;29;20400;-78
2023/04/28 04:31:27;;;;;;;27.73;16.10;;;11.60;94.00;;;;;;4879572;29;20025;-78
2023/04/28 04:33:53;;;;;;;27.05;15.27;;;12.10;93.90;;;;;;4882238;29;20064;-77
2023/04/28 04:36:20;;;;;;;25.40;13.00;;;12.50;92.80;;;;;;4882734;29;20033;-78
2023/04/28 04:38:46;;;;;;;24.23;12.98;;;12.10;92.40;;;;;;4899220;29;20028;-73
2023/04/28 04:41:15;;;;;;;23.42;12.23;;;12.80;92.70;;;;;;4866992;29;20028;-77
2023/04/28 04:43:42;;;;;;;22.27;11.43;;;13.00;91.70;;;;;;4897783;29;20033;-74
2023/04/28 04:46:08;;;;;;;18.38;11.57;;;13.00;91.60;;;;;;4882435;29;20029;-74
2023/04/28 04:48:34;;;;;;;18.98;11.80;;;14.10;91.50;;;;;;4869107;29;20036;-79
2023/04/28 04:51:00;;;;;;;21.52;11.43;;;14.50;90.60;;;;;;4891040;29;20087;-79
2023/04/28 04:53:26;;;;;;;27.90;12.85;;;14.60;89.70;;;;;;4881943;29;20417;-77
2023/04/28 04:55:53;;;;;;;21.77;12.35;;;14.70;88.70;;;;;;4897669;29;20502;-76
2023/04/28 04:58:20;;;;;;;20.63;11.98;;;15.20;87.60;;;;;;4897205;29;20047;-76
2023/04/28 05:01:14;;;;;;;24.67;10.30;;;15.60;87.40;;;;;;4840572;29;20575;-72
2023/04/28 05:03:41;;;;;;;18.33;11.20;;;16.00;87.60;;;;;;4843992;29;20486;-77
2023/04/28 05:06:07;;;;;;;21.02;12.18;;;15.10;88.60;;;;;;4859467;29;20126;-74
2023/04/28 05:08:42;;;;;;;21.45;11.18;;;14.20;89.50;;;;;;4843720;29;20033;-75
2023/04/28 05:11:08;;;;;;;16.90;9.50;;;13.70;89.90;;;;;;4859643;29;20132;-74
2023/04/28 05:13:35;;;;;;;19.65;10.73;;;13.30;90.20;;;;;;4843233;29;20647;-77
2023/04/28 05:16:02;;;;;;;22.10;11.52;;;13.00;91.00;;;;;;4843774;29;20033;-79
2023/04/28 05:18:37;;;;;;;18.40;11.05;;;12.90;91.00;;;;;;4858976;29;20053;-74
2023/04/28 05:21:04;;;;;;;19.30;11.18;;;12.90;90.70;;;;;;4859253;29;20086;-73
2023/04/28 05:23:30;;;;;;;20.45;11.23;;;12.80;90.70;;;;;;4858635;29;20438;-76
2023/04/28 05:25:56;;;;;;;22.73;10.82;;;12.70;91.00;;;;;;4858127;29;20034;-76
2023/04/28 05:28:22;;;;;;;19.42;12.00;;;12.50;90.60;;;;;;4856861;29;20228;-75
2023/04/28 05:30:49;;;;;;;17.50;10.65;;;12.40;91.00;;;;;;4858834;29;20153;-79
2023/04/28 05:33:15;;;;;;;23.58;12.90;;;11.70;91.20;;;;;;4856905;29;20041;-77
2023/04/28 05:35:41;;;;;;;21.20;11.85;;;11.80;91.20;;;;;;4843073;29;20037;-77
2023/04/28 05:38:07;;;;;;;25.15;12.32;;;11.30;91.80;;;;;;4869868;29;20413;-77
2023/04/28 05:40:33;;;;;;;24.67;13.63;;;11.40;93.10;;;;;;4879234;29;20064;-77
2023/04/28 05:43:00;;;;;;;30.15;16.38;;;11.40;93.00;;;;;;4889075;29;20032;-75
2023/04/28 05:45:26;;;;;;;33.00;18.02;;;11.30;92.30;;;;;;4898636;29;20496;-77
2023/04/28 05:47:53;;;;;;;34.13;17.40;;;11.30;92.90;;;;;;4895153;29;20048;-76
2023/04/28 05:50:19;;;;;;;23.10;13.88;;;11.50;94.80;;;;;;4867313;29;20514;-74
2023/04/28 05:52:45;;;;;;;28.10;14.90;;;11.70;94.20;;;;;;4862252;29;20086;-77
2023/04/28 05:55:12;;;;;;;23.67;10.32;;;11.90;94.20;;;;;;4846743;29;20037;-76
2023/04/28 05:57:38;;;;;;;23.55;12.32;;;12.10;92.40;;;;;;4876152;29;20598;-78
2023/04/28 06:00:04;;;;;;;17.95;10.38;;;12.50;93.60;;;;;;4860533;29;20116;-77
2023/04/28 06:02:38;;;;;;;17.42;10.40;;;12.70;93.60;;;;;;4873972;29;20037;-76
2023/04/28 06:05:04;;;;;;;26.83;10.63;;;13.00;92.30;;;;;;4876361;29;20510;-75
2023/04/28 06:07:30;;;;;;;16.98;9.45;;;13.20;92.00;;;;;;4858943;29;20029;-73
2023/04/28 06:09:56;;;;;;;16.20;8.00;;;13.50;91.70;;;;;;4876581;29;20390;-77
2023/04/28 06:12:22;;;;;;;19.20;9.15;;;13.50;91.30;;;;;;4861494;29;20195;-76
2023/04/28 06:14:52;;;;;;;19.42;9.60;;;13.70;91.70;;;;;;4876897;29;20032;-73
2023/04/28 06:17:18;;;;;;;17.95;9.55;;;13.90;91.10;;;;;;4878998;29;20029;-73
2023/04/28 06:19:44;;;;;;;14.23;7.82;;;14.00;90.80;;;;;;4876756;29;20112;-76
2023/04/28 06:22:09;;;;;;;18.42;8.43;;;13.80;89.70;;;;;;4876915;29;20482;-77
2023/04/28 06:24:35;;;;;;;18.92;9.02;;;14.00;89.90;;;;;;4876865;29;20057;-76
2023/04/28 06:27:05;;;;;;;12.55;7.57;;;14.30;90.10;;;;;;4877100;29;20052;-76
2023/04/28 06:29:31;;;;;;;17.45;8.23;;;14.50;89.00;;;;;;4875235;29;20021;-75
2023/04/28 06:31:56;;;;;;;17.85;8.52;;;14.60;90.90;;;;;;4875929;29;20466;-73
2023/04/28 06:34:29;;;;;;;13.68;7.82;;;14.80;89.90;;;;;;4876900;29;20029;-77
2023/04/28 06:36:57;;;;;;;12.50;8.05;;;15.10;90.20;;;;;;4876776;29;20044;-74
2023/04/28 06:39:25;;;;;;;14.60;7.22;;;15.10;88.30;;;;;;4875975;29;20021;-73
2023/04/28 06:41:51;;;;;;;16.10;6.72;;;15.40;89.30;;;;;;4875769;29;20060;-77
2023/04/28 06:44:18;;;;;;;14.07;6.35;;;15.60;86.00;;;;;;4861423;29;20490;-77
2023/04/28 06:46:43;;;;;;;11.55;6.32;;;15.60;85.10;;;;;;4876739;29;20060;-77
2023/04/28 06:49:09;;;;;;;14.18;7.45;;;15.80;86.30;;;;;;4875614;29;20041;-78
2023/04/28 06:51:35;;;;;;;10.77;5.72;;;16.00;84.30;;;;;;4875833;29;20123;-77
2023/04/28 06:54:01;;;;;;;9.20;5.53;;;16.20;85.60;;;;;;4845322;29;20537;-77
2023/04/28 06:56:27;;;;;;;11.60;5.18;;;16.10;84.50;;;;;;4877263;29;20024;-77
2023/04/28 06:58:56;;;;;;;10.75;5.45;;;16.30;84.00;;;;;;4877940;29;20037;-77
2023/04/28 07:01:22;;;;;;;10.73;5.43;;;16.30;84.40;;;;;;4878112;29;20080;-73
2023/04/28 07:03:48;;;;;;;11.02;5.45;;;16.50;83.50;;;;;;4877814;29;20071;-76
2023/04/28 07:06:15;;;;;;;11.73;5.63;;;16.60;84.20;;;;;;4877969;29;20056;-75
2023/04/28 07:08:42;;;;;;;10.13;4.93;;;16.70;83.70;;;;;;4877989;29;20088;-76
2023/04/28 07:11:08;;;;;;;12.45;5.32;;;16.80;82.60;;;;;;4865934;29;20071;-76
2023/04/28 07:13:34;;;;;;;9.15;5.50;;;16.80;84.30;;;;;;4877805;29;20478;-76
2023/04/28 07:16:00;;;;;;;9.32;4.38;;;16.60;83.70;;;;;;4877840;29;20056;-77
2023/04/28 07:18:26;;;;;;;18.27;5.60;;;16.70;82.00;;;;;;4877748;29;20426;-77
2023/04/28 07:20:52;;;;;;;12.00;4.03;;;16.70;82.30;;;;;;4878666;29;20104;-75
2023/04/28 07:23:17;;;;;;;10.57;4.85;;;16.80;85.00;;;;;;4895013;29;20098;-76
2023/04/28 07:25:43;;;;;;;9.10;4.28;;;17.00;83.40;;;;;;4881812;29;20100;-75
2023/04/28 07:28:09;;;;;;;11.48;4.35;;;17.20;82.20;;;;;;4895760;29;20037;-75
2023/04/28 07:30:35;;;;;;;10.50;4.60;;;17.20;82.60;;;;;;4881554;29;20574;-75
2023/04/28 07:33:01;;;;;;;14.70;4.78;;;17.10;84.30;;;;;;4879930;29;20075;-77
2023/04/28 07:35:27;;;;;;;8.35;3.85;;;17.20;82.00;;;;;;4880723;29;20363;-72
2023/04/28 07:37:53;;;;;;;18.98;4.00;;;17.30;83.10;;;;;;4881059;29;20024;-77
2023/04/28 07:40:20;;;;;;;10.35;3.42;;;17.20;79.90;;;;;;4880920;29;20031;-75
2023/04/28 07:42:46;;;;;;;9.95;3.88;;;17.30;80.80;;;;;;4881260;29;20382;-75
2023/04/28 07:45:14;;;;;;;9.15;5.00;;;17.60;81.70;;;;;;4881776;29;20037;-72
2023/04/28 07:47:41;;;;;;;11.68;5.28;;;17.70;80.40;;;;;;4881251;29;20021;-74
2023/04/28 07:50:07;;;;;;;13.98;3.72;;;17.90;78.70;;;;;;4892921;29;20183;-73
2023/04/28 07:52:34;;;;;;;8.98;3.35;;;17.80;77.00;;;;;;4899674;29;20049;-73
2023/04/28 07:55:01;;;;;;;6.88;3.40;;;17.00;76.70;;;;;;4900065;29;20052;-73
2023/04/28 07:57:28;;;;;;;4.75;3.00;;;17.20;78.30;;;;;;4899920;29;20028;-78
2023/04/28 07:59:55;;;;;;;9.32;2.78;;;17.40;80.60;;;;;;4900044;29;20031;-78
2023/04/28 08:02:21;;;;;;;6.50;2.90;;;17.40;78.10;;;;;;4899925;29;20089;-74
2023/04/28 08:04:47;;;;;;;5.70;2.58;;;17.40;79.50;;;;;;4899979;29;20485;-77
2023/04/28 08:07:13;;;;;;;5.95;2.70;;;17.40;79.30;;;;;;4899825;29;20064;-73
2023/04/28 08:09:41;;;;;;;6.68;2.65;;;17.00;75.90;;;;;;4899780;29;20078;-71
2023/04/28 08:12:07;;;;;;;7.95;3.28;;;17.10;80.50;;;;;;4899845;29;20127;-77
2023/04/28 08:14:33;;;;;;;9.52;3.08;;;17.30;81.90;;;;;;4899554;29;20053;-73
2023/04/28 08:16:59;;;;;;;6.35;3.28;;;17.50;80.40;;;;;;4899881;29;20028;-75
2023/04/28 08:19:26;;;;;;;7.03;2.88;;;17.30;78.40;;;;;;4899914;29;20037;-74
2023/04/28 08:21:51;;;;;;;7.15;3.20;;;17.50;81.90;;;;;;4899365;29;20088;-73
2023/04/28 08:24:17;;;;;;;7.00;3.17;;;17.70;78.40;;;;;;4899557;29;20037;-73
2023/04/28 08:26:43;;;;;;;6.80;2.75;;;17.60;78.90;;;;;;4899741;29;20400;-73
2023/04/28 08:29:09;;;;;;;13.70;3.58;;;16.70;75.70;;;;;;4899503;29;20032;-73
2023/04/28 08:31:35;;;;;;;6.75;2.80;;;16.70;77.70;;;;;;4899548;29;20549;-73
2023/04/28 08:34:01;;;;;;;6.38;2.80;;;16.70;78.60;;;;;;4898866;29;20040;-76
2023/04/28 08:36:31;;;;;;;5.20;2.20;;;17.00;79.10;;;;;;4898910;29;20064;-75
2023/04/28 08:38:58;;;;;;;10.15;3.50;;;16.70;76.40;;;;;;4899450;29;20059;-72
2023/04/28 08:41:26;;;;;;;10.85;3.45;;;16.90;79.00;;;;;;4899142;29;20013;-73
2023/04/28 08:43:53;;;;;;;8.93;2.95;;;17.10;81.60;;;;;;4899679;29;20044;-75
2023/04/28 08:46:20;;;;;;;7.40;3.17;;;17.30;84.10;;;;;;4899045;29;20380;-73
2023/04/28 08:48:49;;;;;;;5.72;2.55;;;17.60;78.00;;;;;;4899073;29;20033;-74
2023/04/28 08:51:22;;;;;;;9.30;2.88;;;17.30;81.50;;;;;;4911561;29;20123;-74
2023/04/28 08:53:50;;;;;;;7.75;3.17;;;17.10;77.30;;;;;;4898971;29;20044;-73
2023/04/28 08:56:17;;;;;;;6.72;2.85;;;17.10;77.00;;;;;;4898957;29;20016;-77
2023/04/28 08:58:43;;;;;;;8.20;3.03;;;16.40;77.20;;;;;;4898941;29;20564;-73
2023/04/28 09:01:09;;;;;;;6.85;2.95;;;16.70;79.90;;;;;;4897692;29;20131;-76
2023/04/28 09:03:35;;;;;;;5.15;2.83;;;16.00;76.30;;;;;;4898491;29;20470;-73
2023/04/28 09:06:01;;;;;;;9.75;3.53;;;16.70;80.10;;;;;;4898640;29;20108;-77
2023/04/28 09:08:27;;;;;;;17.40;3.95;;;17.00;77.60;;;;;;4898579;29;20380;-76
2023/04/28 09:11:12;;;;;;;8.32;3.25;;;17.30;81.30;;;;;;4898943;29;20421;-74
2023/04/28 09:13:39;;;;;;;6.32;3.15;;;16.90;80.50;;;;;;4898761;29;20485;-76
2023/04/28 09:16:05;;;;;;;7.10;3.47;;;17.40;83.20;;;;;;4890873;29;20362;-77
2023/04/28 09:18:32;;;;;;;13.48;3.85;;;17.60;80.30;;;;;;4898628;29;20048;-72
2023/04/28 09:21:08;;;;;;;6.40;3.17;;;17.80;79.40;;;;;;4898115;29;20036;-73
2023/04/28 09:23:46;;;;;;;4.70;2.67;;;18.00;80.30;;;;;;4904532;29;20028;-78
2023/04/28 09:26:12;;;;;;;12.25;4.07;;;17.60;75.90;;;;;;4882685;29;20052;-76
2023/04/28 09:28:38;;;;;;;6.15;2.67;;;17.80;78.40;;;;;;4896952;29;20084;-75
2023/04/28 09:31:04;;;;;;;6.93;2.78;;;17.50;76.20;;;;;;4889537;29;20047;-77
2023/04/28 09:33:30;;;;;;;10.05;3.42;;;17.60;75.90;;;;;;4896470;29;20036;-76
2023/04/28 09:35:56;;;;;;;6.40;3.00;;;17.50;77.80;;;;;;4898272;29;20028;-73
2023/04/28 09:38:22;;;;;;;9.30;3.42;;;17.40;78.90;;;;;;4898124;29;20084;-74
2023/04/28 09:40:59;;;;;;;5.50;3.03;;;17.50;79.40;;;;;;4904930;29;20472;-74
2023/04/28 09:43:33;;;;;;;9.73;3.22;;;17.80;80.50;;;;;;4903645;29;20060;-73
2023/04/28 09:46:01;;;;;;;8.10;3.30;;;17.70;74.80;;;;;;4897250;29;20386;-75
2023/04/28 09:48:31;;;;;;;6.70;2.95;;;17.90;77.60;;;;;;4897752;29;20024;-74
2023/04/28 09:51:02;;;;;;;8.57;3.47;;;17.70;76.10;;;;;;4897494;29;20143;-74
2023/04/28 09:53:29;;;;;;;5.55;2.95;;;17.10;75.10;;;;;;4896604;29;20393;-76
2023/04/28 09:55:57;;;;;;;4.82;2.50;;;17.50;78.30;;;;;;4880047;29;20041;-75
2023/04/28 09:58:24;;;;;;;6.15;2.80;;;17.10;76.50;;;;;;4897498;29;20029;-74
2023/04/28 10:00:58;;;;;;;7.88;3.28;;;17.30;75.90;;;;;;4898049;29;20469;-74
2023/04/28 10:03:26;;;;;;;7.00;2.55;;;17.40;79.10;;;;;;4897147;29;20029;-74
2023/04/28 10:05:52;;;;;;;6.03;2.67;;;17.60;78.00;;;;;;4897847;29;20026;-78
2023/04/28 10:08:23;;;;;;;11.77;3.45;;;17.80;76.70;;;;;;4880827;29;20112;-74
2023/04/28 10:10:52;;;;;;;5.90;3.00;;;18.00;76.30;;;;;;4897548;29;20461;-75
2023/04/28 10:13:19;;;;;;;6.22;3.42;;;18.20;76.80;;;;;;4897751;29;20072;-74
2023/04/28 10:15:45;;;;;;;9.15;3.63;;;18.10;75.60;;;;;;4897614;29;20318;-74
2023/04/28 10:18:15;;;;;;;6.45;3.05;;;18.10;77.30;;;;;;4897796;29;20032;-74
2023/04/28 10:20:45;;;;;;;5.25;2.67;;;18.30;76.30;;;;;;4897370;29;20553;-75
2023/04/28 10:23:22;;;;;;;8.63;3.70;;;18.50;76.60;;;;;;4897452;29;20032;-78
2023/04/28 10:25:53;;;;;;;9.20;3.22;;;18.50;79.80;;;;;;4897125;29;20052;-74
2023/04/28 10:28:19;;;;;;;5.78;2.83;;;17.90;76.10;;;;;;4897427;29;20024;-74
2023/04/28 10:31:08;;;;;;;13.57;3.08;;;17.80;74.50;;;;;;4897602;29;20040;-74
2023/04/28 10:33:36;;;;;;;6.93;3.22;;;18.00;76.00;;;;;;4895959;29;20494;-75
2023/04/28 10:36:03;;;;;;;8.95;3.08;;;17.80;74.90;;;;;;4897436;29;20520;-74
2023/04/28 10:38:29;;;;;;;6.80;2.90;;;17.70;74.30;;;;;;4897011;29;20055;-75
2023/04/28 10:41:01;;;;;;;12.23;4.00;;;17.20;72.60;;;;;;4897188;29;20481;-74
2023/04/28 10:43:36;;;;;;;9.55;3.85;;;17.30;77.80;;;;;;4897691;29;20361;-74
2023/04/28 10:46:04;;;;;;;9.95;3.53;;;17.80;77.20;;;;;;4897087;29;20404;-74
2023/04/28 10:48:33;;;;;;;8.77;3.42;;;18.20;77.20;;;;;;4897008;29;20358;-77
2023/04/28 10:51:03;;;;;;;5.40;3.50;;;18.20;75.90;;;;;;4896701;29;20049;-75
2023/04/28 10:53:50;;;;;;;7.25;3.15;;;18.30;75.40;;;;;;4896792;29;20492;-74
2023/04/28 10:56:17;;;;;;;7.65;3.53;;;18.40;73.30;;;;;;4857425;29;20134;-74
2023/04/28 10:58:47;;;;;;;6.65;3.05;;;18.50;77.00;;;;;;4841992;29;20426;-75
2023/04/28 11:01:33;;;;;;;6.13;3.25;;;18.60;73.40;;;;;;4857850;29;20049;-78
2023/04/28 11:04:09;;;;;;;8.15;3.00;;;18.80;73.80;;;;;;4857686;29;20162;-74
2023/04/28 11:06:40;;;;;;;7.30;2.85;;;18.90;74.90;;;;;;4857399;29;20442;-75
2023/04/28 11:09:14;;;;;;;6.53;3.40;;;18.80;70.90;;;;;;4857940;29;20598;-78
2023/04/28 11:12:00;;;;;;;7.93;2.60;;;18.60;75.40;;;;;;4857756;29;20033;-75
2023/04/28 11:14:39;;;;;;;8.88;3.80;;;18.80;75.10;;;;;;4857278;29;20060;-76
2023/04/28 11:17:12;;;;;;;9.93;3.40;;;18.80;72.90;;;;;;4857210;29;20021;-77
2023/04/28 11:19:43;;;;;;;10.02;3.80;;;18.90;76.40;;;;;;4857518;29;20093;-77
2023/04/28 11:22:19;;;;;;;11.15;3.60;;;19.10;73.90;;;;;;4856912;29;20050;-78
2023/04/28 11:24:56;;;;;;;10.43;4.63;;;19.00;74.20;;;;;;4857667;29;20041;-77
2023/04/28 11:27:31;;;;;;;8.90;3.25;;;19.10;74.70;;;;;;4857440;29;20050;-75
2023/04/28 11:29:58;;;;;;;7.63;3.38;;;19.20;74.80;;;;;;4856753;29;20507;-74
2023/04/28 11:32:32;;;;;;;10.15;3.22;;;18.90;73.90;;;;;;4861022;29;20037;-77
2023/04/28 11:34:58;;;;;;;8.77;3.20;;;19.00;77.80;;;;;;4896206;29;20441;-73
2023/04/28 11:37:24;;;;;;;5.63;3.10;;;19.20;75.80;;;;;;4896727;29;20025;-76
2023/04/28 11:39:50;;;;;;;5.28;2.63;;;19.10;75.90;;;;;;4896609;29;20024;-73
2023/04/28 11:42:16;;;;;;;6.65;3.58;;;19.40;76.10;;;;;;4896679;29;20481;-73
2023/04/28 11:44:50;;;;;;;7.30;3.38;;;19.30;76.20;;;;;;4896538;29;20037;-74
2023/04/28 11:47:26;;;;;;;6.53;3.35;;;19.40;76.80;;;;;;4896519;29;20427;-77
2023/04/28 11:49:52;;;;;;;13.13;3.35;;;19.40;74.40;;;;;;4896544;29;20064;-72
2023/04/28 11:52:20;;;;;;;6.65;3.10;;;19.30;75.60;;;;;;4896374;29;20036;-72
2023/04/28 11:54:53;;;;;;;6.90;2.88;;;19.10;73.40;;;;;;4896722;29;20041;-73
2023/04/28 11:57:22;;;;;;;9.07;3.50;;;18.70;73.50;;;;;;4902433;29;20123;-74
2023/04/28 11:59:48;;;;;;;5.10;3.00;;;18.70;74.70;;;;;;4899199;29;20384;-73
2023/04/28 12:02:16;;;;;;;7.05;2.83;;;18.90;76.30;;;;;;4898871;29;20025;-72
2023/04/28 12:04:43;;;;;;;7.78;3.20;;;18.90;74.80;;;;;;4896228;29;20083;-77
2023/04/28 12:07:13;;;;;;;7.18;2.60;;;19.00;75.90;;;;;;4900766;29;20558;-78
2023/04/28 12:09:40;;;;;;;6.25;2.67;;;18.80;71.10;;;;;;4898334;29;20040;-74
2023/04/28 12:12:17;;;;;;;5.93;2.88;;;18.90;73.40;;;;;;4898504;29;20400;-78
2023/04/28 12:15:03;;;;;;;7.85;2.75;;;18.70;73.20;;;;;;4900161;29;20055;-77
2023/04/28 12:17:31;;;;;;;10.40;3.63;;;18.40;72.40;;;;;;4899076;29;20025;-73
2023/04/28 12:19:58;;;;;;;9.70;3.30;;;18.50;74.10;;;;;;4881446;29;20437;-73
2023/04/28 12:22:25;;;;;;;9.45;2.60;;;18.70;78.60;;;;;;4889281;29;20037;-74
2023/04/28 12:25:07;;;;;;;8.05;2.38;;;19.00;74.80;;;;;;4899397;29;20029;-77
2023/04/28 12:27:35;;;;;;;6.95;2.92;;;19.30;75.00;;;;;;4898889;29;20054;-75
2023/04/28 12:30:01;;;;;;;6.72;2.45;;;19.50;75.30;;;;;;4899390;29;20029;-74
2023/04/28 12:32:38;;;;;;;7.72;2.97;;;19.70;75.70;;;;;;4898217;29;20032;-74
2023/04/28 12:35:05;;;;;;;4.35;2.28;;;19.80;75.20;;;;;;4899414;29;20028;-75
2023/04/28 12:37:31;;;;;;;6.25;2.90;;;19.50;73.50;;;;;;4899255;29;20418;-77
2023/04/28 12:39:57;;;;;;;6.50;2.63;;;19.30;73.80;;;;;;4899063;29;20381;-73